| Pilot: | GLD1760 Luciano A. | Aircraft: | Piper | Distance: | 91NM |
| From: | SBJF | To: | SDRS | Duration: | 1.33 |
| Validation: | Valid | Tipo: | Charter | Tail Number: | PT-GLD |
| ZFW: | 1530 | Block Fuel/Init FOB | 63flight_details.php/52 | Flight Fuel | 63 |
| Passengers: | 0 | Cargo: | 10 | Alternate: | SBGL |
| Departure Time: | 1609 | Cruise Speed: | 112 | Flight Level: | VFR |
| Flight Type: | VFR | Aircraft Type: | C182 | Weight Unit: | Kg |
| Date: | 19/04/2026 | Comments: | GOLD ACARS | Network: | VATSIM |
| Crash: | No | Validator Comments: | Rating | 133.342 |
| ROUTE | DCT 2157S04342W REA 2233S04409W DCT |
| REMARKS | PER/A OPR/GOLD VIRTUAL AIRLINES PER/A RMK/FROM S./PIC GLD1760/REA ALFA DELTA/EM TREINAMENTO VFR/ RMK/VATCAREER |
| Crash | OK | Beacon Lights off with engine on | Fault | Speed above 250KIAS below 10.000ft | OK |
| Landing Lights OFF below 10.000ft | OK | Landing Lights ON above 10.000ft | OK | Stall | OK |
| Overspeed | OK | Pause | OK | Refuel | OK |
| Slew | OK | Taxi Lights OFF during taxi | OK | Land Lights OFF during take off | OK |
| Landing Lights OFF during landing | OK | Landed in not planned airfield | OK | Taxi speed above 25 kt | OK |
| Incorrect QNH during take off | OK | Incorrect QNH during landing | OK |
| Wind: | 91º/4 kt | Heading: | 240 |
| VS: | -100 ft/min | IAS: | 59 kt |
| Gforce: | 1.048 G | Bank: | -0.95 |
| Pitch | -0.47 | Flaps | 100 |
| Nav Lights | ON | Landing Lights | ON |
| Beacon Lights | ON | Strobe Lights | ON |
| DATE | EVENT | IAS | ALTITUDE |
|---|---|---|---|
| 2026-04-19 16:09:26 | GOLD ACARS VERSION 3.3.6.9 | 0 | 0 |
| 2026-04-19 16:09:26 | BOARDING | 0 | 3042 |
| 2026-04-19 16:09:26 | LITTLENAVMAP ON | 0 | 3042 |
| 2026-04-19 16:19:19 | NAV LIGHTS ON | 0 | 3044 |
| 2026-04-19 16:19:20 | NAV LIGHTS OFF | 0 | 3044 |
| 2026-04-19 16:19:28 | FLAP 33% | 0 | 3044 |
| 2026-04-19 16:19:31 | FLAP 66% | 0 | 3044 |
| 2026-04-19 16:19:31 | FLAP 100% | 0 | 3044 |
| 2026-04-19 16:19:35 | FLAP 66% | 0 | 3044 |
| 2026-04-19 16:19:36 | FLAP 33% | 0 | 3044 |
| 2026-04-19 16:19:36 | FLAP 0% | 0 | 3044 |
| 2026-04-19 16:20:46 | NAV LIGHTS ON | 0 | 3044 |
| 2026-04-19 16:20:49 | BCN LIGHTS ON | 0 | 3044 |
| 2026-04-19 16:20:50 | NAV LIGHTS OFF | 0 | 3044 |
| 2026-04-19 16:21:27 | STARTING ENGINE 1 | 0 | 3044 |
| 2026-04-19 16:25:51 | TAXI LIGHTS ON | 0 | 3042 |
| 2026-04-19 16:25:52 | NAV LIGHTS ON | 0 | 3042 |
| 2026-04-19 16:27:38 | TAXI TO THE RWY | 14 | 2958 |
| 2026-04-19 16:30:34 | STB LIGHTS ON | 0 | 2958 |
| 2026-04-19 16:30:34 | LND LIGHTS ON | 0 | 2958 |
| 2026-04-19 16:32:29 | CLIMBING | 68 | 2966 |
| 2026-04-19 16:33:07 | AP ENGAGED | 87 | 3457 |
| 2026-04-19 16:33:17 | CRUISE | 91 | 3568 |
| 2026-04-19 16:33:20 | LANDING | 98 | 3562 |
| 2026-04-19 16:35:14 | CLIMBING | 94 | 3531 |
| 2026-04-19 16:35:17 | CRUISE | 93 | 3554 |
| 2026-04-19 16:35:19 | CLIMBING | 98 | 3573 |
| 2026-04-19 16:35:26 | CRUISE | 98 | 3642 |
| 2026-04-19 16:35:30 | CLIMBING | 97 | 3658 |
| 2026-04-19 16:35:34 | CRUISE | 97 | 3687 |
| 2026-04-19 16:35:50 | CLIMBING | 90 | 3811 |
| 2026-04-19 16:37:14 | CRUISE | 91 | 4487 |
| 2026-04-19 16:45:12 | CLIMBING | 100 | 4452 |
| 2026-04-19 16:45:15 | CRUISE | 98 | 4478 |
| 2026-04-19 16:48:30 | CLIMBING | 93 | 4496 |
| 2026-04-19 16:48:33 | CRUISE | 93 | 4523 |
| 2026-04-19 17:14:34 | AP DISENGAGED | 109 | 4493 |
| 2026-04-19 17:14:35 | AP ENGAGED | 107 | 4493 |
| 2026-04-19 17:14:46 | AP DISENGAGED | 105 | 4493 |
| 2026-04-19 17:14:47 | AP ENGAGED | 104 | 4494 |
| 2026-04-19 17:22:02 | FLAP 33% | 86 | 3165 |
| 2026-04-19 17:22:30 | LANDING | 81 | 2840 |
| 2026-04-19 17:22:32 | FLAP 66% | 82 | 2823 |
| 2026-04-19 17:23:13 | AP DISENGAGED | 74 | 2389 |
| 2026-04-19 17:23:30 | FLAP 100% | 76 | 2145 |
| 2026-04-19 17:24:25 | LANDED AIRPORT [SDRS] | 61 | 1335 |
| 2026-04-19 17:24:25 | LANDED - VS: -100 ft/min | 58 | 1334 |
| 2026-04-19 17:24:30 | AT THE GATE | 28 | 1328 |
| 2026-04-19 17:24:55 | FLAP 33% | 4 | 1328 |
| 2026-04-19 17:24:55 | FLAP 0% | 4 | 1328 |
| 2026-04-19 17:27:16 | TAXI LIGHTS OFF | 1 | 1330 |
| 2026-04-19 17:27:17 | LND LIGHTS OFF | 1 | 1330 |
| 2026-04-19 17:27:20 | STB LIGHTS OFF | 1 | 1330 |
| 2026-04-19 17:27:21 | BCN LIGHTS OFF | 1 | 1330 |
| 2026-04-19 17:27:21 | BEACON LIGHT OFF & ENGINE ON | 1 | 1330 |
| 2026-04-19 17:29:11 | FLIGHT FINISHED | 0 | 1329 |
| DATE | IAS | GS | ALTITUDE | FUEL USED | OAT | Flight Phase |
|---|---|---|---|---|---|---|
| 2026-04-19 16:11:27 | 0 | 0 | 3044 | 0 | 23 | BOARDING |
| 2026-04-19 16:12:27 | 0 | 0 | 3044 | 0 | 23 | BOARDING |
| 2026-04-19 16:13:27 | 0 | 0 | 3044 | 0 | 23 | BOARDING |
| 2026-04-19 16:14:27 | 0 | 0 | 3044 | 0 | 23 | BOARDING |
| 2026-04-19 16:15:27 | 0 | 0 | 3044 | 0 | 23 | BOARDING |
| 2026-04-19 16:16:28 | 0 | 0 | 3044 | 0 | 23 | BOARDING |
| 2026-04-19 16:17:28 | 0 | 0 | 3044 | 0 | 23 | BOARDING |
| 2026-04-19 16:18:28 | 0 | 0 | 3044 | -11 | 23 | BOARDING |
| 2026-04-19 16:19:28 | 0 | 0 | 3044 | -11 | 23 | BOARDING |
| 2026-04-19 16:20:28 | 0 | 0 | 3044 | -11 | 23 | BOARDING |
| 2026-04-19 16:21:29 | 0 | 0 | 3044 | -11 | 23 | BOARDING |
| 2026-04-19 16:22:29 | 0 | 0 | 3042 | -10 | 23 | BOARDING |
| 2026-04-19 16:23:29 | 0 | 0 | 3042 | -10 | 23 | BOARDING |
| 2026-04-19 16:24:29 | 0 | 0 | 3042 | -10 | 23 | BOARDING |
| 2026-04-19 16:25:30 | 0 | 0 | 3042 | -10 | 23 | BOARDING |
| 2026-04-19 16:26:30 | 0 | 0 | 2959 | -10 | 23 | BOARDING |
| 2026-04-19 16:27:30 | 0 | 0 | 2959 | -10 | 23 | BOARDING |
| 2026-04-19 16:28:30 | 0 | 0 | 2958 | -10 | 23 | BOARDING |
| 2026-04-19 16:29:30 | 1 | 0 | 2958 | -10 | 23 | TAXI TO THE RWY |
| 2026-04-19 16:30:30 | 2 | 15 | 2958 | -10 | 23 | TAXI TO THE RWY |
| 2026-04-19 16:31:31 | 0 | 12 | 2958 | -10 | 23 | TAXI TO THE RWY |
| 2026-04-19 16:32:31 | 69 | 59 | 2976 | -10 | 23 | TAXI TO THE RWY |
| 2026-04-19 16:33:31 | 107 | 99 | 3550 | -9 | 19 | CLIMBING |
| 2026-04-19 16:34:31 | 110 | 107 | 3524 | -9 | 19 | LANDING |
| 2026-04-19 16:35:31 | 98 | 90 | 3672 | -8 | 19 | LANDING |
| 2026-04-19 16:36:32 | 89 | 89 | 4137 | -8 | 18 | CLIMBING |
| 2026-04-19 16:37:32 | 98 | 96 | 4503 | -8 | 17 | CLIMBING |
| 2026-04-19 16:38:32 | 105 | 112 | 4511 | -7 | 17 | CRUISE |
| 2026-04-19 16:39:32 | 107 | 105 | 4488 | -7 | 17 | CRUISE |
| 2026-04-19 16:40:32 | 97 | 97 | 4487 | -7 | 17 | CRUISE |
| 2026-04-19 16:41:33 | 87 | 84 | 4492 | -6 | 17 | CRUISE |
| 2026-04-19 16:42:33 | 105 | 105 | 4502 | -6 | 16 | CRUISE |
| 2026-04-19 16:43:33 | 106 | 106 | 4510 | -5 | 16 | CRUISE |
| 2026-04-19 16:44:33 | 108 | 107 | 4501 | -5 | 16 | CRUISE |
| 2026-04-19 16:45:33 | 104 | 96 | 4489 | -5 | 16 | CRUISE |
| 2026-04-19 16:46:34 | 109 | 106 | 4508 | -4 | 16 | CRUISE |
| 2026-04-19 16:47:34 | 101 | 96 | 4507 | -4 | 16 | CRUISE |
| 2026-04-19 16:48:34 | 94 | 88 | 4524 | -3 | 16 | CRUISE |
| 2026-04-19 16:49:34 | 106 | 103 | 4495 | -3 | 16 | CRUISE |
| 2026-04-19 16:50:34 | 108 | 101 | 4502 | -2 | 16 | CRUISE |
| 2026-04-19 16:51:35 | 104 | 102 | 4502 | -2 | 16 | CRUISE |
| 2026-04-19 16:52:35 | 108 | 106 | 4504 | -1 | 16 | CRUISE |
| 2026-04-19 16:53:35 | 111 | 105 | 4510 | -1 | 16 | CRUISE |
| 2026-04-19 16:54:35 | 111 | 106 | 4503 | -1 | 16 | CRUISE |
| 2026-04-19 16:55:36 | 112 | 105 | 4499 | 0 | 16 | CRUISE |
| 2026-04-19 16:56:36 | 110 | 106 | 4500 | 0 | 16 | CRUISE |
| 2026-04-19 16:57:36 | 110 | 103 | 4505 | 0 | 16 | CRUISE |
| 2026-04-19 16:58:36 | 107 | 101 | 4497 | 0 | 16 | CRUISE |
| 2026-04-19 16:59:37 | 107 | 103 | 4496 | 1 | 16 | CRUISE |
| 2026-04-19 17:00:37 | 112 | 105 | 4498 | 1 | 17 | CRUISE |
| 2026-04-19 17:01:37 | 108 | 101 | 4496 | 2 | 16 | CRUISE |
| 2026-04-19 17:02:37 | 107 | 96 | 4496 | 2 | 16 | CRUISE |
| 2026-04-19 17:03:37 | 104 | 106 | 4490 | 2 | 16 | CRUISE |
| 2026-04-19 17:04:38 | 108 | 109 | 4504 | 3 | 16 | CRUISE |
| 2026-04-19 17:05:38 | 106 | 107 | 4506 | 3 | 16 | CRUISE |
| 2026-04-19 17:06:38 | 105 | 107 | 4505 | 4 | 16 | CRUISE |
| 2026-04-19 17:07:38 | 105 | 107 | 4505 | 4 | 16 | CRUISE |
| 2026-04-19 17:08:38 | 106 | 109 | 4506 | 5 | 16 | CRUISE |
| 2026-04-19 17:09:39 | 107 | 112 | 4506 | 5 | 16 | CRUISE |
| 2026-04-19 17:10:39 | 108 | 113 | 4505 | 6 | 16 | CRUISE |
| 2026-04-19 17:11:39 | 108 | 114 | 4506 | 6 | 16 | CRUISE |
| 2026-04-19 17:12:39 | 100 | 108 | 4489 | 6 | 16 | CRUISE |
| 2026-04-19 17:13:39 | 107 | 114 | 4501 | 7 | 16 | CRUISE |
| 2026-04-19 17:14:40 | 107 | 118 | 4495 | 7 | 16 | CRUISE |
| 2026-04-19 17:15:40 | 104 | 119 | 4503 | 8 | 16 | CRUISE |
| 2026-04-19 17:16:40 | 108 | 121 | 4511 | 8 | 16 | CRUISE |
| 2026-04-19 17:17:40 | 108 | 123 | 4514 | 9 | 16 | CRUISE |
| 2026-04-19 17:18:40 | 107 | 123 | 4510 | 9 | 16 | CRUISE |
| 2026-04-19 17:19:41 | 105 | 121 | 4407 | 9 | 16 | CRUISE |
| 2026-04-19 17:20:41 | 90 | 105 | 3893 | 10 | 18 | CRUISE |
| 2026-04-19 17:21:42 | 88 | 103 | 3424 | 10 | 19 | CRUISE |
| 2026-04-19 17:22:43 | 77 | 91 | 2733 | 10 | 23 | CRUISE |
| 2026-04-19 17:23:43 | 73 | 80 | 1909 | 10 | 24 | LANDING |
| 2026-04-19 17:24:43 | 9 | 13 | 1328 | 10 | 24 | LANDING |
| 2026-04-19 17:25:43 | 13 | 10 | 1330 | 10 | 24 | AT THE GATE |
| 2026-04-19 17:26:44 | 15 | 10 | 1337 | 10 | 24 | AT THE GATE |
| 2026-04-19 17:27:44 | 10 | 8 | 1328 | 10 | 24 | AT THE GATE |
| 2026-04-19 17:28:44 | 0 | 0 | 1329 | 10 | 24 | AT THE GATE |